sensor_id;sensor_type;location;lat;lon;timestamp;P1;durP1;ratioP1;P2;durP2;ratioP2
2874;SDS011;1445;52.600;13.328;2023-08-31T00:02:11;2.20;;;1.13;;
2874;SDS011;1445;52.600;13.328;2023-08-31T00:04:37;1.15;;;1.02;;
2874;SDS011;1445;52.600;13.328;2023-08-31T00:07:02;1.25;;;1.00;;
2874;SDS011;1445;52.600;13.328;2023-08-31T00:09:28;1.08;;;0.98;;
2874;SDS011;1445;52.600;13.328;2023-08-31T00:11:54;1.17;;;0.93;;
2874;SDS011;1445;52.600;13.328;2023-08-31T00:14:22;2.75;;;1.38;;
2874;SDS011;1445;52.600;13.328;2023-08-31T00:16:48;1.10;;;1.00;;
2874;SDS011;1445;52.600;13.328;2023-08-31T00:19:14;0.80;;;0.80;;
2874;SDS011;1445;52.600;13.328;2023-08-31T00:21:40;0.95;;;0.95;;
2874;SDS011;1445;52.600;13.328;2023-08-31T00:24:06;7.60;;;1.92;;
2874;SDS011;1445;52.600;13.328;2023-08-31T00:26:34;1.05;;;0.95;;
2874;SDS011;1445;52.600;13.328;2023-08-31T00:29:05;0.77;;;0.77;;
2874;SDS011;1445;52.600;13.328;2023-08-31T00:31:34;0.98;;;0.88;;
2874;SDS011;1445;52.600;13.328;2023-08-31T00:34:02;0.82;;;0.82;;
2874;SDS011;1445;52.600;13.328;2023-08-31T00:36:32;1.45;;;1.10;;
2874;SDS011;1445;52.600;13.328;2023-08-31T00:39:05;1.17;;;1.02;;
2874;SDS011;1445;52.600;13.328;2023-08-31T00:41:33;1.50;;;1.40;;
2874;SDS011;1445;52.600;13.328;2023-08-31T00:43:58;1.05;;;1.05;;
2874;SDS011;1445;52.600;13.328;2023-08-31T00:46:24;2.15;;;1.58;;
2874;SDS011;1445;52.600;13.328;2023-08-31T00:48:53;0.73;;;0.73;;
2874;SDS011;1445;52.600;13.328;2023-08-31T00:51:20;1.55;;;0.95;;
2874;SDS011;1445;52.600;13.328;2023-08-31T00:53:46;1.38;;;1.15;;
2874;SDS011;1445;52.600;13.328;2023-08-31T00:56:11;2.33;;;1.20;;
2874;SDS011;1445;52.600;13.328;2023-08-31T00:58:38;1.42;;;1.27;;
2874;SDS011;1445;52.600;13.328;2023-08-31T01:03:42;0.80;;;0.80;;
2874;SDS011;1445;52.600;13.328;2023-08-31T01:09:27;1.95;;;1.23;;
2874;SDS011;1445;52.600;13.328;2023-08-31T01:12:16;11.60;;;1.48;;
2874;SDS011;1445;52.600;13.328;2023-08-31T01:14:57;1.60;;;1.50;;
2874;SDS011;1445;52.600;13.328;2023-08-31T01:17:37;1.73;;;1.40;;
2874;SDS011;1445;52.600;13.328;2023-08-31T01:20:09;1.10;;;1.08;;
2874;SDS011;1445;52.600;13.328;2023-08-31T01:23:04;2.17;;;1.30;;
2874;SDS011;1445;52.600;13.328;2023-08-31T01:25:35;2.03;;;1.67;;
2874;SDS011;1445;52.600;13.328;2023-08-31T01:28:02;1.30;;;1.05;;
2874;SDS011;1445;52.600;13.328;2023-08-31T01:30:30;2.80;;;1.85;;
2874;SDS011;1445;52.600;13.328;2023-08-31T01:32:56;2.80;;;2.08;;
2874;SDS011;1445;52.600;13.328;2023-08-31T01:35:22;1.15;;;1.05;;
2874;SDS011;1445;52.600;13.328;2023-08-31T01:37:56;1.05;;;0.95;;
2874;SDS011;1445;52.600;13.328;2023-08-31T01:40:34;1.35;;;1.08;;
2874;SDS011;1445;52.600;13.328;2023-08-31T01:43:08;1.10;;;1.00;;
2874;SDS011;1445;52.600;13.328;2023-08-31T01:45:37;3.08;;;1.90;;
2874;SDS011;1445;52.600;13.328;2023-08-31T01:48:04;0.93;;;0.90;;
2874;SDS011;1445;52.600;13.328;2023-08-31T01:50:30;0.93;;;0.93;;
2874;SDS011;1445;52.600;13.328;2023-08-31T01:52:55;0.68;;;0.68;;
2874;SDS011;1445;52.600;13.328;2023-08-31T01:55:21;0.82;;;0.82;;
2874;SDS011;1445;52.600;13.328;2023-08-31T01:57:48;0.82;;;0.82;;
2874;SDS011;1445;52.600;13.328;2023-08-31T02:00:13;0.88;;;0.80;;
2874;SDS011;1445;52.600;13.328;2023-08-31T02:02:41;0.98;;;0.70;;
2874;SDS011;1445;52.600;13.328;2023-08-31T02:05:09;2.10;;;0.90;;
2874;SDS011;1445;52.600;13.328;2023-08-31T02:07:35;0.68;;;0.68;;
2874;SDS011;1445;52.600;13.328;2023-08-31T02:10:01;0.82;;;0.70;;
2874;SDS011;1445;52.600;13.328;2023-08-31T02:12:27;1.02;;;0.93;;
2874;SDS011;1445;52.600;13.328;2023-08-31T02:14:53;0.55;;;0.55;;
2874;SDS011;1445;52.600;13.328;2023-08-31T02:17:19;0.65;;;0.65;;
2874;SDS011;1445;52.600;13.328;2023-08-31T02:19:44;1.58;;;0.80;;
2874;SDS011;1445;52.600;13.328;2023-08-31T02:22:10;1.02;;;0.82;;
2874;SDS011;1445;52.600;13.328;2023-08-31T02:24:35;0.57;;;0.57;;
2874;SDS011;1445;52.600;13.328;2023-08-31T02:27:04;0.90;;;0.90;;
2874;SDS011;1445;52.600;13.328;2023-08-31T02:29:29;0.60;;;0.60;;
2874;SDS011;1445;52.600;13.328;2023-08-31T02:31:55;1.08;;;1.08;;
2874;SDS011;1445;52.600;13.328;2023-08-31T02:34:20;0.57;;;0.57;;
2874;SDS011;1445;52.600;13.328;2023-08-31T02:36:46;0.68;;;0.68;;
2874;SDS011;1445;52.600;13.328;2023-08-31T02:39:11;0.77;;;0.47;;
2874;SDS011;1445;52.600;13.328;2023-08-31T02:41:38;0.50;;;0.50;;
2874;SDS011;1445;52.600;13.328;2023-08-31T02:44:03;0.60;;;0.50;;
2874;SDS011;1445;52.600;13.328;2023-08-31T02:46:29;1.15;;;1.08;;
2874;SDS011;1445;52.600;13.328;2023-08-31T02:48:55;0.38;;;0.38;;
2874;SDS011;1445;52.600;13.328;2023-08-31T02:51:21;0.82;;;0.77;;
2874;SDS011;1445;52.600;13.328;2023-08-31T02:53:47;0.68;;;0.68;;
2874;SDS011;1445;52.600;13.328;2023-08-31T02:56:12;1.15;;;1.02;;
2874;SDS011;1445;52.600;13.328;2023-08-31T02:58:38;0.60;;;0.60;;
2874;SDS011;1445;52.600;13.328;2023-08-31T03:01:10;2.45;;;0.77;;
2874;SDS011;1445;52.600;13.328;2023-08-31T03:03:40;0.40;;;0.40;;
2874;SDS011;1445;52.600;13.328;2023-08-31T03:06:07;3.47;;;0.95;;
2874;SDS011;1445;52.600;13.328;2023-08-31T03:08:34;1.05;;;0.93;;
2874;SDS011;1445;52.600;13.328;2023-08-31T03:11:02;0.93;;;0.50;;
2874;SDS011;1445;52.600;13.328;2023-08-31T03:13:28;0.30;;;0.30;;
2874;SDS011;1445;52.600;13.328;2023-08-31T03:15:54;0.52;;;0.52;;
2874;SDS011;1445;52.600;13.328;2023-08-31T03:18:21;0.43;;;0.43;;
2874;SDS011;1445;52.600;13.328;2023-08-31T03:20:47;1.08;;;0.70;;
2874;SDS011;1445;52.600;13.328;2023-08-31T03:23:13;0.50;;;0.50;;
2874;SDS011;1445;52.600;13.328;2023-08-31T03:25:39;0.60;;;0.60;;
2874;SDS011;1445;52.600;13.328;2023-08-31T03:28:05;1.33;;;1.00;;
2874;SDS011;1445;52.600;13.328;2023-08-31T03:30:30;0.47;;;0.47;;
2874;SDS011;1445;52.600;13.328;2023-08-31T03:32:56;0.40;;;0.40;;
2874;SDS011;1445;52.600;13.328;2023-08-31T03:35:21;1.13;;;0.77;;
2874;SDS011;1445;52.600;13.328;2023-08-31T03:37:52;0.80;;;0.80;;
2874;SDS011;1445;52.600;13.328;2023-08-31T03:40:18;1.35;;;1.00;;
2874;SDS011;1445;52.600;13.328;2023-08-31T03:42:43;0.88;;;0.80;;
2874;SDS011;1445;52.600;13.328;2023-08-31T03:45:09;1.45;;;1.35;;
2874;SDS011;1445;52.600;13.328;2023-08-31T03:47:35;1.92;;;0.70;;
2874;SDS011;1445;52.600;13.328;2023-08-31T03:50:00;0.88;;;0.73;;
2874;SDS011;1445;52.600;13.328;2023-08-31T03:52:26;0.40;;;0.40;;
2874;SDS011;1445;52.600;13.328;2023-08-31T03:54:51;0.60;;;0.60;;
2874;SDS011;1445;52.600;13.328;2023-08-31T03:57:17;0.77;;;0.77;;
2874;SDS011;1445;52.600;13.328;2023-08-31T03:59:44;1.25;;;1.02;;
2874;SDS011;1445;52.600;13.328;2023-08-31T04:02:10;1.10;;;0.90;;
2874;SDS011;1445;52.600;13.328;2023-08-31T04:04:35;1.05;;;1.05;;
2874;SDS011;1445;52.600;13.328;2023-08-31T04:07:01;0.40;;;0.40;;
2874;SDS011;1445;52.600;13.328;2023-08-31T04:09:27;1.33;;;1.23;;
2874;SDS011;1445;52.600;13.328;2023-08-31T04:11:52;2.75;;;1.65;;
2874;SDS011;1445;52.600;13.328;2023-08-31T04:14:18;0.88;;;0.85;;
2874;SDS011;1445;52.600;13.328;2023-08-31T04:16:44;0.88;;;0.88;;
2874;SDS011;1445;52.600;13.328;2023-08-31T04:19:10;0.77;;;0.77;;
2874;SDS011;1445;52.600;13.328;2023-08-31T04:21:35;1.25;;;1.15;;
2874;SDS011;1445;52.600;13.328;2023-08-31T04:24:03;2.28;;;1.60;;
2874;SDS011;1445;52.600;13.328;2023-08-31T04:26:28;2.53;;;1.70;;
2874;SDS011;1445;52.600;13.328;2023-08-31T04:28:54;1.27;;;1.17;;
2874;SDS011;1445;52.600;13.328;2023-08-31T04:31:20;2.10;;;1.88;;
2874;SDS011;1445;52.600;13.328;2023-08-31T04:33:46;1.60;;;1.15;;
2874;SDS011;1445;52.600;13.328;2023-08-31T04:36:12;2.10;;;1.08;;
2874;SDS011;1445;52.600;13.328;2023-08-31T04:38:37;1.40;;;1.20;;
2874;SDS011;1445;52.600;13.328;2023-08-31T04:41:03;3.17;;;1.60;;
2874;SDS011;1445;52.600;13.328;2023-08-31T04:43:29;1.60;;;1.35;;
2874;SDS011;1445;52.600;13.328;2023-08-31T04:45:55;2.22;;;2.03;;
2874;SDS011;1445;52.600;13.328;2023-08-31T04:48:21;4.28;;;1.15;;
2874;SDS011;1445;52.600;13.328;2023-08-31T04:50:47;2.83;;;1.83;;
2874;SDS011;1445;52.600;13.328;2023-08-31T04:53:12;1.55;;;1.42;;
2874;SDS011;1445;52.600;13.328;2023-08-31T04:55:38;4.50;;;2.00;;
2874;SDS011;1445;52.600;13.328;2023-08-31T04:58:04;1.70;;;1.55;;
2874;SDS011;1445;52.600;13.328;2023-08-31T05:00:30;2.88;;;1.65;;
2874;SDS011;1445;52.600;13.328;2023-08-31T05:02:56;3.35;;;3.08;;
2874;SDS011;1445;52.600;13.328;2023-08-31T05:05:22;1.40;;;1.30;;
2874;SDS011;1445;52.600;13.328;2023-08-31T05:07:47;3.33;;;1.92;;
2874;SDS011;1445;52.600;13.328;2023-08-31T05:10:13;2.33;;;1.63;;
2874;SDS011;1445;52.600;13.328;2023-08-31T05:12:38;3.03;;;1.92;;
2874;SDS011;1445;52.600;13.328;2023-08-31T05:15:04;1.88;;;1.65;;
2874;SDS011;1445;52.600;13.328;2023-08-31T05:17:31;2.88;;;2.63;;
2874;SDS011;1445;52.600;13.328;2023-08-31T05:19:56;2.33;;;1.95;;
2874;SDS011;1445;52.600;13.328;2023-08-31T05:22:22;1.67;;;1.58;;
2874;SDS011;1445;52.600;13.328;2023-08-31T05:24:48;1.77;;;1.67;;
2874;SDS011;1445;52.600;13.328;2023-08-31T05:27:14;2.55;;;2.35;;
2874;SDS011;1445;52.600;13.328;2023-08-31T05:29:39;2.28;;;1.42;;
2874;SDS011;1445;52.600;13.328;2023-08-31T05:32:05;2.38;;;2.08;;
2874;SDS011;1445;52.600;13.328;2023-08-31T05:34:31;1.40;;;1.30;;
2874;SDS011;1445;52.600;13.328;2023-08-31T05:36:58;4.50;;;1.55;;
2874;SDS011;1445;52.600;13.328;2023-08-31T05:39:24;2.08;;;1.95;;
2874;SDS011;1445;52.600;13.328;2023-08-31T05:41:50;3.22;;;2.13;;
2874;SDS011;1445;52.600;13.328;2023-08-31T05:44:16;2.63;;;2.42;;
2874;SDS011;1445;52.600;13.328;2023-08-31T05:46:42;4.03;;;2.20;;
2874;SDS011;1445;52.600;13.328;2023-08-31T05:49:08;3.38;;;2.28;;
2874;SDS011;1445;52.600;13.328;2023-08-31T05:51:34;4.35;;;2.80;;
2874;SDS011;1445;52.600;13.328;2023-08-31T05:53:59;6.47;;;2.63;;
2874;SDS011;1445;52.600;13.328;2023-08-31T05:56:25;2.03;;;1.83;;
2874;SDS011;1445;52.600;13.328;2023-08-31T05:58:51;2.55;;;1.90;;
2874;SDS011;1445;52.600;13.328;2023-08-31T06:01:20;2.58;;;2.08;;
2874;SDS011;1445;52.600;13.328;2023-08-31T06:03:45;3.15;;;1.90;;
2874;SDS011;1445;52.600;13.328;2023-08-31T06:06:11;1.30;;;1.20;;
2874;SDS011;1445;52.600;13.328;2023-08-31T06:08:36;3.47;;;2.30;;
2874;SDS011;1445;52.600;13.328;2023-08-31T06:11:02;2.83;;;1.88;;
2874;SDS011;1445;52.600;13.328;2023-08-31T06:13:28;1.98;;;1.38;;
2874;SDS011;1445;52.600;13.328;2023-08-31T06:15:53;2.80;;;1.92;;
2874;SDS011;1445;52.600;13.328;2023-08-31T06:18:20;5.63;;;2.25;;
2874;SDS011;1445;52.600;13.328;2023-08-31T06:20:46;2.67;;;1.90;;
2874;SDS011;1445;52.600;13.328;2023-08-31T06:23:13;3.97;;;2.75;;
2874;SDS011;1445;52.600;13.328;2023-08-31T06:25:39;3.45;;;2.40;;
2874;SDS011;1445;52.600;13.328;2023-08-31T06:28:05;2.53;;;1.67;;
2874;SDS011;1445;52.600;13.328;2023-08-31T06:30:34;2.38;;;2.17;;
2874;SDS011;1445;52.600;13.328;2023-08-31T06:33:00;2.25;;;1.92;;
2874;SDS011;1445;52.600;13.328;2023-08-31T06:35:25;5.35;;;2.75;;
2874;SDS011;1445;52.600;13.328;2023-08-31T06:37:51;2.35;;;2.15;;
2874;SDS011;1445;52.600;13.328;2023-08-31T06:40:17;2.60;;;2.25;;
2874;SDS011;1445;52.600;13.328;2023-08-31T06:42:42;2.42;;;1.77;;
2874;SDS011;1445;52.600;13.328;2023-08-31T06:45:08;4.72;;;3.10;;
2874;SDS011;1445;52.600;13.328;2023-08-31T06:47:34;3.03;;;2.72;;
2874;SDS011;1445;52.600;13.328;2023-08-31T06:50:00;2.17;;;1.98;;
2874;SDS011;1445;52.600;13.328;2023-08-31T06:52:26;3.75;;;2.78;;
2874;SDS011;1445;52.600;13.328;2023-08-31T06:54:52;8.00;;;1.70;;
2874;SDS011;1445;52.600;13.328;2023-08-31T06:57:22;2.47;;;2.28;;
2874;SDS011;1445;52.600;13.328;2023-08-31T06:59:51;3.22;;;2.00;;
2874;SDS011;1445;52.600;13.328;2023-08-31T07:02:17;2.47;;;2.05;;
2874;SDS011;1445;52.600;13.328;2023-08-31T07:04:44;2.05;;;1.70;;
2874;SDS011;1445;52.600;13.328;2023-08-31T07:07:10;1.67;;;1.35;;
2874;SDS011;1445;52.600;13.328;2023-08-31T07:09:36;2.30;;;1.33;;
2874;SDS011;1445;52.600;13.328;2023-08-31T07:12:01;3.53;;;2.72;;
2874;SDS011;1445;52.600;13.328;2023-08-31T07:14:27;1.92;;;1.65;;
2874;SDS011;1445;52.600;13.328;2023-08-31T07:16:53;2.72;;;2.10;;
2874;SDS011;1445;52.600;13.328;2023-08-31T07:19:18;2.00;;;1.33;;
2874;SDS011;1445;52.600;13.328;2023-08-31T07:21:44;5.60;;;1.67;;
2874;SDS011;1445;52.600;13.328;2023-08-31T07:24:10;3.08;;;2.03;;
2874;SDS011;1445;52.600;13.328;2023-08-31T07:26:36;1.73;;;1.48;;
2874;SDS011;1445;52.600;13.328;2023-08-31T07:29:01;6.15;;;1.88;;
2874;SDS011;1445;52.600;13.328;2023-08-31T07:31:30;2.38;;;1.88;;
2874;SDS011;1445;52.600;13.328;2023-08-31T07:33:57;1.83;;;1.48;;
2874;SDS011;1445;52.600;13.328;2023-08-31T07:36:22;1.60;;;1.08;;
2874;SDS011;1445;52.600;13.328;2023-08-31T07:38:48;1.48;;;1.35;;
2874;SDS011;1445;52.600;13.328;2023-08-31T07:41:13;1.98;;;1.23;;
2874;SDS011;1445;52.600;13.328;2023-08-31T07:43:39;2.47;;;1.52;;
2874;SDS011;1445;52.600;13.328;2023-08-31T07:46:04;1.25;;;1.08;;
2874;SDS011;1445;52.600;13.328;2023-08-31T07:48:30;2.97;;;1.10;;
2874;SDS011;1445;52.600;13.328;2023-08-31T07:50:55;1.48;;;1.33;;
2874;SDS011;1445;52.600;13.328;2023-08-31T07:53:21;0.90;;;0.90;;
2874;SDS011;1445;52.600;13.328;2023-08-31T07:55:54;1.73;;;1.27;;
2874;SDS011;1445;52.600;13.328;2023-08-31T07:58:20;1.20;;;1.10;;
2874;SDS011;1445;52.600;13.328;2023-08-31T08:00:46;2.72;;;1.58;;
2874;SDS011;1445;52.600;13.328;2023-08-31T08:03:12;1.85;;;1.65;;
2874;SDS011;1445;52.600;13.328;2023-08-31T08:05:38;1.73;;;1.45;;
2874;SDS011;1445;52.600;13.328;2023-08-31T08:08:04;1.73;;;1.38;;
2874;SDS011;1445;52.600;13.328;2023-08-31T08:10:30;0.85;;;0.85;;
2874;SDS011;1445;52.600;13.328;2023-08-31T08:12:55;1.13;;;1.00;;
2874;SDS011;1445;52.600;13.328;2023-08-31T08:15:21;1.67;;;0.90;;
2874;SDS011;1445;52.600;13.328;2023-08-31T08:17:47;2.08;;;1.17;;
2874;SDS011;1445;52.600;13.328;2023-08-31T08:20:13;1.05;;;0.88;;
2874;SDS011;1445;52.600;13.328;2023-08-31T08:22:39;0.60;;;0.60;;
2874;SDS011;1445;52.600;13.328;2023-08-31T08:25:05;1.08;;;0.88;;
2874;SDS011;1445;52.600;13.328;2023-08-31T08:27:31;1.67;;;1.42;;
2874;SDS011;1445;52.600;13.328;2023-08-31T08:29:58;0.57;;;0.57;;
2874;SDS011;1445;52.600;13.328;2023-08-31T08:32:24;0.80;;;0.80;;
2874;SDS011;1445;52.600;13.328;2023-08-31T08:34:50;0.93;;;0.63;;
2874;SDS011;1445;52.600;13.328;2023-08-31T08:37:16;1.42;;;1.27;;
2874;SDS011;1445;52.600;13.328;2023-08-31T08:39:42;0.30;;;0.30;;
2874;SDS011;1445;52.600;13.328;2023-08-31T08:42:10;2.67;;;0.90;;
2874;SDS011;1445;52.600;13.328;2023-08-31T08:44:35;0.60;;;0.60;;
2874;SDS011;1445;52.600;13.328;2023-08-31T08:47:02;0.50;;;0.50;;
2874;SDS011;1445;52.600;13.328;2023-08-31T08:49:31;0.50;;;0.50;;
2874;SDS011;1445;52.600;13.328;2023-08-31T08:51:58;0.30;;;0.30;;
2874;SDS011;1445;52.600;13.328;2023-08-31T08:54:24;0.55;;;0.50;;
2874;SDS011;1445;52.600;13.328;2023-08-31T08:56:50;0.40;;;0.40;;
2874;SDS011;1445;52.600;13.328;2023-08-31T08:59:16;0.45;;;0.45;;
2874;SDS011;1445;52.600;13.328;2023-08-31T09:01:42;0.45;;;0.45;;
2874;SDS011;1445;52.600;13.328;2023-08-31T09:04:09;0.50;;;0.50;;
2874;SDS011;1445;52.600;13.328;2023-08-31T09:06:35;0.68;;;0.68;;
2874;SDS011;1445;52.600;13.328;2023-08-31T09:09:00;0.60;;;0.60;;
2874;SDS011;1445;52.600;13.328;2023-08-31T09:11:26;1.38;;;1.00;;
2874;SDS011;1445;52.600;13.328;2023-08-31T09:13:52;9.68;;;1.42;;
2874;SDS011;1445;52.600;13.328;2023-08-31T09:18:54;0.40;;;0.40;;
2874;SDS011;1445;52.600;13.328;2023-08-31T09:21:34;0.20;;;0.20;;
2874;SDS011;1445;52.600;13.328;2023-08-31T09:24:01;0.30;;;0.30;;
2874;SDS011;1445;52.600;13.328;2023-08-31T09:26:27;0.30;;;0.30;;
2874;SDS011;1445;52.600;13.328;2023-08-31T09:28:53;0.60;;;0.60;;
2874;SDS011;1445;52.600;13.328;2023-08-31T09:31:19;0.40;;;0.40;;
2874;SDS011;1445;52.600;13.328;2023-08-31T09:33:51;0.30;;;0.30;;
2874;SDS011;1445;52.600;13.328;2023-08-31T09:36:17;0.70;;;0.70;;
2874;SDS011;1445;52.600;13.328;2023-08-31T09:38:44;0.52;;;0.52;;
2874;SDS011;1445;52.600;13.328;2023-08-31T09:41:10;0.50;;;0.50;;
2874;SDS011;1445;52.600;13.328;2023-08-31T09:43:36;6.13;;;0.63;;
2874;SDS011;1445;52.600;13.328;2023-08-31T09:46:02;0.20;;;0.20;;
2874;SDS011;1445;52.600;13.328;2023-08-31T09:48:29;0.45;;;0.30;;
2874;SDS011;1445;52.600;13.328;2023-08-31T09:50:55;8.23;;;0.68;;
2874;SDS011;1445;52.600;13.328;2023-08-31T09:53:23;0.75;;;0.55;;
2874;SDS011;1445;52.600;13.328;2023-08-31T09:55:50;0.60;;;0.30;;
2874;SDS011;1445;52.600;13.328;2023-08-31T09:58:20;2.05;;;0.80;;
2874;SDS011;1445;52.600;13.328;2023-08-31T10:00:46;0.28;;;0.28;;
2874;SDS011;1445;52.600;13.328;2023-08-31T10:03:14;0.57;;;0.57;;
2874;SDS011;1445;52.600;13.328;2023-08-31T10:05:42;0.30;;;0.30;;
2874;SDS011;1445;52.600;13.328;2023-08-31T10:08:09;0.88;;;0.85;;
2874;SDS011;1445;52.600;13.328;2023-08-31T10:10:35;0.50;;;0.50;;
2874;SDS011;1445;52.600;13.328;2023-08-31T10:13:03;0.30;;;0.30;;
2874;SDS011;1445;52.600;13.328;2023-08-31T10:15:33;0.57;;;0.52;;
2874;SDS011;1445;52.600;13.328;2023-08-31T10:18:01;0.20;;;0.20;;
2874;SDS011;1445;52.600;13.328;2023-08-31T10:20:28;0.20;;;0.20;;
2874;SDS011;1445;52.600;13.328;2023-08-31T10:22:59;0.20;;;0.20;;
2874;SDS011;1445;52.600;13.328;2023-08-31T10:28:18;0.32;;;0.32;;
2874;SDS011;1445;52.600;13.328;2023-08-31T10:31:00;1.85;;;0.68;;
2874;SDS011;1445;52.600;13.328;2023-08-31T10:33:33;0.43;;;0.43;;
2874;SDS011;1445;52.600;13.328;2023-08-31T10:36:12;0.60;;;0.60;;
2874;SDS011;1445;52.600;13.328;2023-08-31T10:38:39;0.40;;;0.40;;
2874;SDS011;1445;52.600;13.328;2023-08-31T10:46:42;0.77;;;0.60;;
2874;SDS011;1445;52.600;13.328;2023-08-31T10:51:34;0.30;;;0.30;;
2874;SDS011;1445;52.600;13.328;2023-08-31T10:56:32;1.15;;;0.70;;
2874;SDS011;1445;52.600;13.328;2023-08-31T10:58:58;0.70;;;0.47;;
2874;SDS011;1445;52.600;13.328;2023-08-31T11:04:29;0.40;;;0.40;;
2874;SDS011;1445;52.600;13.328;2023-08-31T11:07:11;0.30;;;0.30;;
2874;SDS011;1445;52.600;13.328;2023-08-31T11:09:37;1.05;;;0.85;;
2874;SDS011;1445;52.600;13.328;2023-08-31T11:12:03;3.78;;;1.13;;
2874;SDS011;1445;52.600;13.328;2023-08-31T11:14:29;0.50;;;0.50;;
2874;SDS011;1445;52.600;13.328;2023-08-31T11:16:54;0.75;;;0.75;;
2874;SDS011;1445;52.600;13.328;2023-08-31T11:19:20;1.02;;;0.43;;
2874;SDS011;1445;52.600;13.328;2023-08-31T11:21:46;1.02;;;0.77;;
2874;SDS011;1445;52.600;13.328;2023-08-31T11:24:11;0.47;;;0.38;;
2874;SDS011;1445;52.600;13.328;2023-08-31T11:26:37;0.40;;;0.40;;
2874;SDS011;1445;52.600;13.328;2023-08-31T11:29:06;0.43;;;0.43;;
2874;SDS011;1445;52.600;13.328;2023-08-31T11:31:33;1.02;;;0.77;;
2874;SDS011;1445;52.600;13.328;2023-08-31T11:34:07;0.57;;;0.57;;
2874;SDS011;1445;52.600;13.328;2023-08-31T11:36:37;0.40;;;0.30;;
2874;SDS011;1445;52.600;13.328;2023-08-31T11:39:03;0.43;;;0.32;;
2874;SDS011;1445;52.600;13.328;2023-08-31T11:41:35;0.47;;;0.47;;
2874;SDS011;1445;52.600;13.328;2023-08-31T11:44:05;0.68;;;0.57;;
2874;SDS011;1445;52.600;13.328;2023-08-31T11:46:32;1.00;;;0.70;;
2874;SDS011;1445;52.600;13.328;2023-08-31T11:48:59;0.45;;;0.45;;
2874;SDS011;1445;52.600;13.328;2023-08-31T11:51:25;1.20;;;1.10;;
2874;SDS011;1445;52.600;13.328;2023-08-31T11:53:54;1.63;;;0.88;;
2874;SDS011;1445;52.600;13.328;2023-08-31T11:56:23;0.50;;;0.50;;
2874;SDS011;1445;52.600;13.328;2023-08-31T11:58:52;0.50;;;0.50;;
2874;SDS011;1445;52.600;13.328;2023-08-31T12:01:18;0.45;;;0.45;;
2874;SDS011;1445;52.600;13.328;2023-08-31T12:03:46;0.52;;;0.45;;
2874;SDS011;1445;52.600;13.328;2023-08-31T12:06:21;0.63;;;0.60;;
2874;SDS011;1445;52.600;13.328;2023-08-31T12:08:46;0.32;;;0.32;;
2874;SDS011;1445;52.600;13.328;2023-08-31T12:11:12;1.15;;;0.77;;
2874;SDS011;1445;52.600;13.328;2023-08-31T12:13:38;0.50;;;0.50;;
2874;SDS011;1445;52.600;13.328;2023-08-31T12:16:03;0.63;;;0.50;;
2874;SDS011;1445;52.600;13.328;2023-08-31T12:18:37;0.30;;;0.30;;
2874;SDS011;1445;52.600;13.328;2023-08-31T12:21:02;1.65;;;1.10;;
2874;SDS011;1445;52.600;13.328;2023-08-31T12:23:29;0.43;;;0.43;;
2874;SDS011;1445;52.600;13.328;2023-08-31T12:25:55;0.60;;;0.60;;
2874;SDS011;1445;52.600;13.328;2023-08-31T12:28:21;1.10;;;1.00;;
2874;SDS011;1445;52.600;13.328;2023-08-31T12:30:48;0.50;;;0.50;;
2874;SDS011;1445;52.600;13.328;2023-08-31T12:33:16;0.82;;;0.82;;
2874;SDS011;1445;52.600;13.328;2023-08-31T12:35:43;0.57;;;0.50;;
2874;SDS011;1445;52.600;13.328;2023-08-31T12:38:09;1.05;;;0.95;;
2874;SDS011;1445;52.600;13.328;2023-08-31T12:40:35;0.50;;;0.50;;
2874;SDS011;1445;52.600;13.328;2023-08-31T12:43:01;0.90;;;0.88;;
2874;SDS011;1445;52.600;13.328;2023-08-31T12:45:27;0.30;;;0.30;;
2874;SDS011;1445;52.600;13.328;2023-08-31T12:47:53;0.32;;;0.32;;
2874;SDS011;1445;52.600;13.328;2023-08-31T12:50:18;0.40;;;0.40;;
2874;SDS011;1445;52.600;13.328;2023-08-31T12:52:45;2.00;;;0.38;;
2874;SDS011;1445;52.600;13.328;2023-08-31T12:55:14;0.30;;;0.30;;
2874;SDS011;1445;52.600;13.328;2023-08-31T12:57:41;0.77;;;0.68;;
2874;SDS011;1445;52.600;13.328;2023-08-31T13:00:08;0.50;;;0.50;;
2874;SDS011;1445;52.600;13.328;2023-08-31T13:02:37;0.55;;;0.55;;
2874;SDS011;1445;52.600;13.328;2023-08-31T13:05:03;0.77;;;0.65;;
2874;SDS011;1445;52.600;13.328;2023-08-31T13:07:31;0.60;;;0.57;;
2874;SDS011;1445;52.600;13.328;2023-08-31T13:09:59;0.20;;;0.20;;
2874;SDS011;1445;52.600;13.328;2023-08-31T13:12:25;0.93;;;0.68;;
2874;SDS011;1445;52.600;13.328;2023-08-31T13:14:51;0.43;;;0.43;;
2874;SDS011;1445;52.600;13.328;2023-08-31T13:17:16;0.90;;;0.60;;
2874;SDS011;1445;52.600;13.328;2023-08-31T13:19:43;0.95;;;0.77;;
2874;SDS011;1445;52.600;13.328;2023-08-31T13:22:08;0.25;;;0.25;;
2874;SDS011;1445;52.600;13.328;2023-08-31T13:24:34;0.63;;;0.60;;
2874;SDS011;1445;52.600;13.328;2023-08-31T13:26:59;1.02;;;0.60;;
2874;SDS011;1445;52.600;13.328;2023-08-31T13:29:25;0.20;;;0.20;;
2874;SDS011;1445;52.600;13.328;2023-08-31T13:31:50;0.47;;;0.47;;
2874;SDS011;1445;52.600;13.328;2023-08-31T13:34:16;0.75;;;0.57;;
2874;SDS011;1445;52.600;13.328;2023-08-31T13:36:43;0.30;;;0.30;;
2874;SDS011;1445;52.600;13.328;2023-08-31T13:39:09;0.30;;;0.30;;
2874;SDS011;1445;52.600;13.328;2023-08-31T13:41:35;0.70;;;0.68;;
2874;SDS011;1445;52.600;13.328;2023-08-31T13:44:00;0.50;;;0.50;;
2874;SDS011;1445;52.600;13.328;2023-08-31T13:46:26;0.50;;;0.50;;
2874;SDS011;1445;52.600;13.328;2023-08-31T13:48:51;0.38;;;0.30;;
2874;SDS011;1445;52.600;13.328;2023-08-31T13:51:17;0.43;;;0.43;;
2874;SDS011;1445;52.600;13.328;2023-08-31T13:53:43;0.82;;;0.50;;
2874;SDS011;1445;52.600;13.328;2023-08-31T13:56:08;3.17;;;0.80;;
2874;SDS011;1445;52.600;13.328;2023-08-31T13:58:34;0.70;;;0.65;;
2874;SDS011;1445;52.600;13.328;2023-08-31T14:01:00;0.38;;;0.38;;
2874;SDS011;1445;52.600;13.328;2023-08-31T14:03:28;0.40;;;0.40;;
2874;SDS011;1445;52.600;13.328;2023-08-31T14:05:54;0.20;;;0.20;;
2874;SDS011;1445;52.600;13.328;2023-08-31T14:08:19;0.43;;;0.43;;
2874;SDS011;1445;52.600;13.328;2023-08-31T14:10:45;2.90;;;0.65;;
2874;SDS011;1445;52.600;13.328;2023-08-31T14:13:11;0.50;;;0.50;;
2874;SDS011;1445;52.600;13.328;2023-08-31T14:15:36;0.32;;;0.32;;
2874;SDS011;1445;52.600;13.328;2023-08-31T14:18:09;0.57;;;0.52;;
2874;SDS011;1445;52.600;13.328;2023-08-31T14:20:34;0.57;;;0.50;;
2874;SDS011;1445;52.600;13.328;2023-08-31T14:23:00;0.50;;;0.50;;
2874;SDS011;1445;52.600;13.328;2023-08-31T14:25:26;1.35;;;0.80;;
2874;SDS011;1445;52.600;13.328;2023-08-31T14:27:51;0.60;;;0.60;;
2874;SDS011;1445;52.600;13.328;2023-08-31T14:30:17;0.57;;;0.57;;
2874;SDS011;1445;52.600;13.328;2023-08-31T14:32:45;1.45;;;0.50;;
2874;SDS011;1445;52.600;13.328;2023-08-31T14:35:11;0.40;;;0.40;;
2874;SDS011;1445;52.600;13.328;2023-08-31T14:37:36;0.28;;;0.28;;
2874;SDS011;1445;52.600;13.328;2023-08-31T14:40:02;0.50;;;0.50;;
2874;SDS011;1445;52.600;13.328;2023-08-31T14:42:28;0.70;;;0.45;;
2874;SDS011;1445;52.600;13.328;2023-08-31T14:44:54;0.40;;;0.40;;
2874;SDS011;1445;52.600;13.328;2023-08-31T14:47:19;1.40;;;0.45;;
2874;SDS011;1445;52.600;13.328;2023-08-31T14:49:45;0.40;;;0.40;;
2874;SDS011;1445;52.600;13.328;2023-08-31T14:52:11;0.82;;;0.82;;
2874;SDS011;1445;52.600;13.328;2023-08-31T14:54:37;0.30;;;0.30;;
2874;SDS011;1445;52.600;13.328;2023-08-31T14:57:02;0.38;;;0.32;;
2874;SDS011;1445;52.600;13.328;2023-08-31T14:59:31;0.43;;;0.40;;
2874;SDS011;1445;52.600;13.328;2023-08-31T15:01:57;2.35;;;0.85;;
2874;SDS011;1445;52.600;13.328;2023-08-31T15:04:23;0.40;;;0.40;;
2874;SDS011;1445;52.600;13.328;2023-08-31T15:06:48;0.30;;;0.30;;
2874;SDS011;1445;52.600;13.328;2023-08-31T15:09:14;0.50;;;0.50;;
2874;SDS011;1445;52.600;13.328;2023-08-31T15:11:40;0.63;;;0.47;;
2874;SDS011;1445;52.600;13.328;2023-08-31T15:14:05;0.40;;;0.40;;
2874;SDS011;1445;52.600;13.328;2023-08-31T15:16:31;0.35;;;0.35;;
2874;SDS011;1445;52.600;13.328;2023-08-31T15:18:59;0.40;;;0.40;;
2874;SDS011;1445;52.600;13.328;2023-08-31T15:21:26;0.40;;;0.40;;
2874;SDS011;1445;52.600;13.328;2023-08-31T15:23:51;0.30;;;0.30;;